sensor_id;sensor_type;location;lat;lon;timestamp;temperature;humidity
18690;DHT22;9782;52.930;15.562;2023-03-03T00:00:48;0.90;99.90
18690;DHT22;9782;52.930;15.562;2023-03-03T00:03:20;1.00;99.90
18690;DHT22;9782;52.930;15.562;2023-03-03T00:05:48;0.90;57.60
18690;DHT22;9782;52.930;15.562;2023-03-03T00:08:15;0.90;99.90
18690;DHT22;9782;52.930;15.562;2023-03-03T00:10:42;0.90;99.90
18690;DHT22;9782;52.930;15.562;2023-03-03T00:13:14;0.90;99.90
18690;DHT22;9782;52.930;15.562;2023-03-03T00:15:43;0.90;99.90
18690;DHT22;9782;52.930;15.562;2023-03-03T00:18:21;0.80;99.90
18690;DHT22;9782;52.930;15.562;2023-03-03T00:20:52;0.80;99.90
18690;DHT22;9782;52.930;15.562;2023-03-03T00:23:28;0.90;99.90
18690;DHT22;9782;52.930;15.562;2023-03-03T00:25:56;0.80;99.90
18690;DHT22;9782;52.930;15.562;2023-03-03T00:28:26;0.80;99.90
18690;DHT22;9782;52.930;15.562;2023-03-03T00:30:57;0.80;99.90
18690;DHT22;9782;52.930;15.562;2023-03-03T00:33:30;0.80;99.90
18690;DHT22;9782;52.930;15.562;2023-03-03T00:36:24;0.80;1.00
18690;DHT22;9782;52.930;15.562;2023-03-03T00:38:59;0.70;1.00
18690;DHT22;9782;52.930;15.562;2023-03-03T00:41:38;0.80;1.00
18690;DHT22;9782;52.930;15.562;2023-03-03T00:44:32;0.80;1.00
18690;DHT22;9782;52.930;15.562;2023-03-03T00:47:23;0.80;1.00
18690;DHT22;9782;52.930;15.562;2023-03-03T00:49:50;0.80;1.00
18690;DHT22;9782;52.930;15.562;2023-03-03T00:52:18;0.80;1.00
18690;DHT22;9782;52.930;15.562;2023-03-03T00:54:46;0.90;1.00
18690;DHT22;9782;52.930;15.562;2023-03-03T00:57:13;0.90;99.90
18690;DHT22;9782;52.930;15.562;2023-03-03T00:59:40;0.80;1.00
18690;DHT22;9782;52.930;15.562;2023-03-03T01:02:07;0.80;1.00
18690;DHT22;9782;52.930;15.562;2023-03-03T01:04:35;0.80;1.00
18690;DHT22;9782;52.930;15.562;2023-03-03T01:07:02;0.80;1.00
18690;DHT22;9782;52.930;15.562;2023-03-03T01:09:29;0.80;1.00
18690;DHT22;9782;52.930;15.562;2023-03-03T01:11:56;0.80;1.00
18690;DHT22;9782;52.930;15.562;2023-03-03T01:14:23;0.70;1.00
18690;DHT22;9782;52.930;15.562;2023-03-03T01:16:50;0.70;1.00
18690;DHT22;9782;52.930;15.562;2023-03-03T01:19:17;0.70;1.00
18690;DHT22;9782;52.930;15.562;2023-03-03T01:21:46;0.60;1.00
18690;DHT22;9782;52.930;15.562;2023-03-03T01:24:13;0.60;1.00
18690;DHT22;9782;52.930;15.562;2023-03-03T01:26:40;0.60;1.00
18690;DHT22;9782;52.930;15.562;2023-03-03T01:29:07;0.60;19.40
18690;DHT22;9782;52.930;15.562;2023-03-03T01:31:34;0.60;7.90
18690;DHT22;9782;52.930;15.562;2023-03-03T01:34:01;0.70;76.30
18690;DHT22;9782;52.930;15.562;2023-03-03T01:36:28;0.70;99.90
18690;DHT22;9782;52.930;15.562;2023-03-03T01:38:56;0.70;64.00
18690;DHT22;9782;52.930;15.562;2023-03-03T01:41:26;0.70;40.00
18690;DHT22;9782;52.930;15.562;2023-03-03T01:43:54;0.70;32.40
18690;DHT22;9782;52.930;15.562;2023-03-03T01:49:13;0.70;94.40
18690;DHT22;9782;52.930;15.562;2023-03-03T01:51:46;0.70;52.50
18690;DHT22;9782;52.930;15.562;2023-03-03T01:54:19;0.70;25.20
18690;DHT22;9782;52.930;15.562;2023-03-03T01:56:48;0.70;1.00
18690;DHT22;9782;52.930;15.562;2023-03-03T01:59:17;0.70;42.60
18690;DHT22;9782;52.930;15.562;2023-03-03T02:01:46;0.70;99.90
18690;DHT22;9782;52.930;15.562;2023-03-03T02:04:14;0.70;99.90
18690;DHT22;9782;52.930;15.562;2023-03-03T02:06:44;0.70;99.90
18690;DHT22;9782;52.930;15.562;2023-03-03T02:09:18;0.70;99.90
18690;DHT22;9782;52.930;15.562;2023-03-03T02:11:50;0.70;1.00
18690;DHT22;9782;52.930;15.562;2023-03-03T02:14:18;0.80;1.00
18690;DHT22;9782;52.930;15.562;2023-03-03T02:16:45;0.80;99.90
18690;DHT22;9782;52.930;15.562;2023-03-03T02:19:19;0.80;99.90
18690;DHT22;9782;52.930;15.562;2023-03-03T02:21:48;0.80;99.90
18690;DHT22;9782;52.930;15.562;2023-03-03T02:24:22;0.80;99.90
18690;DHT22;9782;52.930;15.562;2023-03-03T02:26:52;0.80;99.90
18690;DHT22;9782;52.930;15.562;2023-03-03T02:29:19;0.80;99.90
18690;DHT22;9782;52.930;15.562;2023-03-03T02:31:46;0.80;1.00
18690;DHT22;9782;52.930;15.562;2023-03-03T02:34:14;0.90;1.00
18690;DHT22;9782;52.930;15.562;2023-03-03T02:36:41;0.80;1.00
18690;DHT22;9782;52.930;15.562;2023-03-03T02:39:11;0.90;99.90
18690;DHT22;9782;52.930;15.562;2023-03-03T02:41:43;0.80;99.90
18690;DHT22;9782;52.930;15.562;2023-03-03T02:44:16;0.80;99.90
18690;DHT22;9782;52.930;15.562;2023-03-03T02:46:44;0.80;99.90
18690;DHT22;9782;52.930;15.562;2023-03-03T02:49:14;0.70;1.00
18690;DHT22;9782;52.930;15.562;2023-03-03T02:51:41;0.70;1.00
18690;DHT22;9782;52.930;15.562;2023-03-03T02:54:10;0.70;1.00
18690;DHT22;9782;52.930;15.562;2023-03-03T02:56:37;0.70;1.00
18690;DHT22;9782;52.930;15.562;2023-03-03T02:59:05;0.70;1.00
18690;DHT22;9782;52.930;15.562;2023-03-03T03:01:34;0.70;1.00
18690;DHT22;9782;52.930;15.562;2023-03-03T03:04:04;0.60;1.00
18690;DHT22;9782;52.930;15.562;2023-03-03T03:06:32;0.70;1.00
18690;DHT22;9782;52.930;15.562;2023-03-03T03:08:59;0.70;1.00
18690;DHT22;9782;52.930;15.562;2023-03-03T03:11:26;0.70;1.00
18690;DHT22;9782;52.930;15.562;2023-03-03T03:13:53;0.60;1.00
18690;DHT22;9782;52.930;15.562;2023-03-03T03:16:20;0.60;1.00
18690;DHT22;9782;52.930;15.562;2023-03-03T03:18:48;0.60;1.00
18690;DHT22;9782;52.930;15.562;2023-03-03T03:21:16;0.60;1.00
18690;DHT22;9782;52.930;15.562;2023-03-03T03:23:43;0.60;6.90
18690;DHT22;9782;52.930;15.562;2023-03-03T03:26:11;0.60;1.00
18690;DHT22;9782;52.930;15.562;2023-03-03T03:28:38;0.60;1.00
18690;DHT22;9782;52.930;15.562;2023-03-03T03:31:06;0.60;15.30
18690;DHT22;9782;52.930;15.562;2023-03-03T03:33:34;0.60;72.10
18690;DHT22;9782;52.930;15.562;2023-03-03T03:36:03;0.60;47.20
18690;DHT22;9782;52.930;15.562;2023-03-03T03:38:31;0.60;1.00
18690;DHT22;9782;52.930;15.562;2023-03-03T03:40:58;0.60;1.00
18690;DHT22;9782;52.930;15.562;2023-03-03T03:43:25;0.60;1.00
18690;DHT22;9782;52.930;15.562;2023-03-03T03:45:52;0.60;1.00
18690;DHT22;9782;52.930;15.562;2023-03-03T03:48:19;0.50;1.00
18690;DHT22;9782;52.930;15.562;2023-03-03T03:50:47;0.50;1.00
18690;DHT22;9782;52.930;15.562;2023-03-03T03:53:16;0.50;1.00
18690;DHT22;9782;52.930;15.562;2023-03-03T03:55:43;0.50;1.00
18690;DHT22;9782;52.930;15.562;2023-03-03T03:58:12;0.50;1.00
18690;DHT22;9782;52.930;15.562;2023-03-03T04:00:40;0.50;42.80
18690;DHT22;9782;52.930;15.562;2023-03-03T04:03:07;0.50;99.90
18690;DHT22;9782;52.930;15.562;2023-03-03T04:05:35;0.50;1.00
18690;DHT22;9782;52.930;15.562;2023-03-03T04:08:02;0.50;1.00
18690;DHT22;9782;52.930;15.562;2023-03-03T04:10:31;0.50;1.00
18690;DHT22;9782;52.930;15.562;2023-03-03T04:12:58;0.50;1.00
18690;DHT22;9782;52.930;15.562;2023-03-03T04:15:25;0.40;1.00
18690;DHT22;9782;52.930;15.562;2023-03-03T04:17:52;0.40;1.00
18690;DHT22;9782;52.930;15.562;2023-03-03T04:20:19;0.40;1.00
18690;DHT22;9782;52.930;15.562;2023-03-03T04:22:46;0.40;1.00
18690;DHT22;9782;52.930;15.562;2023-03-03T04:25:14;0.40;91.00
18690;DHT22;9782;52.930;15.562;2023-03-03T04:27:43;0.40;99.90
18690;DHT22;9782;52.930;15.562;2023-03-03T04:30:11;0.40;99.90
18690;DHT22;9782;52.930;15.562;2023-03-03T04:32:38;0.40;99.90
18690;DHT22;9782;52.930;15.562;2023-03-03T04:35:06;0.40;99.90
18690;DHT22;9782;52.930;15.562;2023-03-03T04:37:34;0.40;99.90
18690;DHT22;9782;52.930;15.562;2023-03-03T04:40:01;0.50;99.90
18690;DHT22;9782;52.930;15.562;2023-03-03T04:42:28;0.50;99.90
18690;DHT22;9782;52.930;15.562;2023-03-03T04:44:57;0.50;1.00
18690;DHT22;9782;52.930;15.562;2023-03-03T04:47:24;0.50;1.00
18690;DHT22;9782;52.930;15.562;2023-03-03T04:49:51;0.50;1.00
18690;DHT22;9782;52.930;15.562;2023-03-03T04:52:18;0.40;1.00
18690;DHT22;9782;52.930;15.562;2023-03-03T04:54:45;0.40;1.00
18690;DHT22;9782;52.930;15.562;2023-03-03T04:57:12;0.40;16.10
18690;DHT22;9782;52.930;15.562;2023-03-03T04:59:39;0.40;18.70
18690;DHT22;9782;52.930;15.562;2023-03-03T05:02:08;0.40;87.10
18690;DHT22;9782;52.930;15.562;2023-03-03T05:04:35;0.40;99.90
18690;DHT22;9782;52.930;15.562;2023-03-03T05:07:02;0.50;99.90
18690;DHT22;9782;52.930;15.562;2023-03-03T05:09:29;0.50;88.40
18690;DHT22;9782;52.930;15.562;2023-03-03T05:11:56;0.50;1.00
18690;DHT22;9782;52.930;15.562;2023-03-03T05:14:23;0.50;1.00
18690;DHT22;9782;52.930;15.562;2023-03-03T05:16:50;0.50;1.00
18690;DHT22;9782;52.930;15.562;2023-03-03T05:19:19;0.50;1.00
18690;DHT22;9782;52.930;15.562;2023-03-03T05:21:46;0.50;1.00
18690;DHT22;9782;52.930;15.562;2023-03-03T05:24:13;0.50;1.00
18690;DHT22;9782;52.930;15.562;2023-03-03T05:26:40;0.50;1.00
18690;DHT22;9782;52.930;15.562;2023-03-03T05:29:08;0.50;1.00
18690;DHT22;9782;52.930;15.562;2023-03-03T05:31:35;0.50;1.00
18690;DHT22;9782;52.930;15.562;2023-03-03T05:34:02;0.50;1.00
18690;DHT22;9782;52.930;15.562;2023-03-03T05:36:30;0.50;1.00
18690;DHT22;9782;52.930;15.562;2023-03-03T05:38:57;0.50;1.00
18690;DHT22;9782;52.930;15.562;2023-03-03T05:41:24;0.40;1.00
18690;DHT22;9782;52.930;15.562;2023-03-03T05:43:51;0.50;1.00
18690;DHT22;9782;52.930;15.562;2023-03-03T05:46:18;0.50;1.00
18690;DHT22;9782;52.930;15.562;2023-03-03T05:48:45;0.50;1.00
18690;DHT22;9782;52.930;15.562;2023-03-03T05:51:12;0.50;1.00
18690;DHT22;9782;52.930;15.562;2023-03-03T05:53:41;0.50;1.00
18690;DHT22;9782;52.930;15.562;2023-03-03T05:56:08;0.40;1.00
18690;DHT22;9782;52.930;15.562;2023-03-03T05:58:35;0.40;1.00
18690;DHT22;9782;52.930;15.562;2023-03-03T06:01:02;0.30;1.00
18690;DHT22;9782;52.930;15.562;2023-03-03T06:03:29;0.40;1.00
18690;DHT22;9782;52.930;15.562;2023-03-03T06:05:56;0.40;1.00
18690;DHT22;9782;52.930;15.562;2023-03-03T06:08:23;0.40;1.00
18690;DHT22;9782;52.930;15.562;2023-03-03T06:10:51;0.40;1.00
18690;DHT22;9782;52.930;15.562;2023-03-03T06:13:18;0.40;1.00
18690;DHT22;9782;52.930;15.562;2023-03-03T06:15:45;0.40;1.00
18690;DHT22;9782;52.930;15.562;2023-03-03T06:18:12;0.50;48.40
18690;DHT22;9782;52.930;15.562;2023-03-03T06:20:39;0.40;1.00
18690;DHT22;9782;52.930;15.562;2023-03-03T06:23:06;0.40;1.00
18690;DHT22;9782;52.930;15.562;2023-03-03T06:25:33;0.40;1.00
18690;DHT22;9782;52.930;15.562;2023-03-03T06:28:02;0.40;1.00
18690;DHT22;9782;52.930;15.562;2023-03-03T06:30:29;0.40;28.90
18690;DHT22;9782;52.930;15.562;2023-03-03T06:32:56;0.40;78.10
18690;DHT22;9782;52.930;15.562;2023-03-03T06:35:23;0.40;99.90
18690;DHT22;9782;52.930;15.562;2023-03-03T06:37:50;0.40;99.90
18690;DHT22;9782;52.930;15.562;2023-03-03T06:40:17;0.40;99.90
18690;DHT22;9782;52.930;15.562;2023-03-03T06:42:44;0.40;99.90
18690;DHT22;9782;52.930;15.562;2023-03-03T06:45:13;0.50;99.90
18690;DHT22;9782;52.930;15.562;2023-03-03T06:47:40;0.50;99.90
18690;DHT22;9782;52.930;15.562;2023-03-03T06:50:09;0.50;99.90
18690;DHT22;9782;52.930;15.562;2023-03-03T06:52:36;0.60;99.90
18690;DHT22;9782;52.930;15.562;2023-03-03T06:55:11;0.60;1.00
18690;DHT22;9782;52.930;15.562;2023-03-03T06:57:39;0.50;99.90
18690;DHT22;9782;52.930;15.562;2023-03-03T07:00:16;0.50;99.90
18690;DHT22;9782;52.930;15.562;2023-03-03T07:02:45;0.50;99.90
18690;DHT22;9782;52.930;15.562;2023-03-03T07:05:14;0.50;99.90
18690;DHT22;9782;52.930;15.562;2023-03-03T07:07:42;0.50;99.90
18690;DHT22;9782;52.930;15.562;2023-03-03T07:10:19;0.60;99.90
18690;DHT22;9782;52.930;15.562;2023-03-03T07:12:47;0.50;99.90
18690;DHT22;9782;52.930;15.562;2023-03-03T07:15:19;0.60;99.90
18690;DHT22;9782;52.930;15.562;2023-03-03T07:17:48;0.60;99.90
18690;DHT22;9782;52.930;15.562;2023-03-03T07:20:18;0.70;99.90
18690;DHT22;9782;52.930;15.562;2023-03-03T07:22:46;0.70;99.90
18690;DHT22;9782;52.930;15.562;2023-03-03T07:25:20;0.80;1.00
18690;DHT22;9782;52.930;15.562;2023-03-03T07:27:47;0.80;1.00
18690;DHT22;9782;52.930;15.562;2023-03-03T07:30:25;0.80;1.00
18690;DHT22;9782;52.930;15.562;2023-03-03T07:32:54;0.90;1.00
18690;DHT22;9782;52.930;15.562;2023-03-03T07:35:36;0.80;1.00
18690;DHT22;9782;52.930;15.562;2023-03-03T07:38:16;0.80;1.00
18690;DHT22;9782;52.930;15.562;2023-03-03T07:40:48;0.80;1.00
18690;DHT22;9782;52.930;15.562;2023-03-03T07:43:26;0.90;1.00
18690;DHT22;9782;52.930;15.562;2023-03-03T07:45:59;0.90;1.00
18690;DHT22;9782;52.930;15.562;2023-03-03T07:48:33;0.90;1.00
18690;DHT22;9782;52.930;15.562;2023-03-03T07:51:03;1.00;1.00
18690;DHT22;9782;52.930;15.562;2023-03-03T07:53:33;1.00;1.00
18690;DHT22;9782;52.930;15.562;2023-03-03T07:56:14;1.00;1.00
18690;DHT22;9782;52.930;15.562;2023-03-03T07:58:42;1.00;1.00
18690;DHT22;9782;52.930;15.562;2023-03-03T08:01:40;1.00;1.00
18690;DHT22;9782;52.930;15.562;2023-03-03T08:04:15;0.90;1.00
18690;DHT22;9782;52.930;15.562;2023-03-03T08:06:50;0.90;99.90
18690;DHT22;9782;52.930;15.562;2023-03-03T08:09:41;0.90;1.00
18690;DHT22;9782;52.930;15.562;2023-03-03T08:12:24;0.90;1.00
18690;DHT22;9782;52.930;15.562;2023-03-03T08:14:53;1.00;1.00
18690;DHT22;9782;52.930;15.562;2023-03-03T08:17:23;1.10;1.00
18690;DHT22;9782;52.930;15.562;2023-03-03T08:19:52;1.10;1.00
18690;DHT22;9782;52.930;15.562;2023-03-03T08:22:27;1.20;1.00
18690;DHT22;9782;52.930;15.562;2023-03-03T08:24:56;1.20;99.90
18690;DHT22;9782;52.930;15.562;2023-03-03T08:27:23;1.20;99.90
18690;DHT22;9782;52.930;15.562;2023-03-03T08:29:50;1.20;99.90
18690;DHT22;9782;52.930;15.562;2023-03-03T08:32:17;1.20;99.90
18690;DHT22;9782;52.930;15.562;2023-03-03T08:34:45;1.30;1.00
18690;DHT22;9782;52.930;15.562;2023-03-03T08:37:12;1.40;1.00
18690;DHT22;9782;52.930;15.562;2023-03-03T08:39:39;1.40;99.90
18690;DHT22;9782;52.930;15.562;2023-03-03T08:42:06;1.50;99.90
18690;DHT22;9782;52.930;15.562;2023-03-03T08:44:33;1.50;99.90
18690;DHT22;9782;52.930;15.562;2023-03-03T08:47:00;1.50;1.00
18690;DHT22;9782;52.930;15.562;2023-03-03T08:49:27;1.50;1.00
18690;DHT22;9782;52.930;15.562;2023-03-03T08:51:55;1.60;80.40
18690;DHT22;9782;52.930;15.562;2023-03-03T08:54:22;1.60;1.00
18690;DHT22;9782;52.930;15.562;2023-03-03T08:56:49;1.60;1.00
18690;DHT22;9782;52.930;15.562;2023-03-03T08:59:16;1.60;1.00
18690;DHT22;9782;52.930;15.562;2023-03-03T09:01:43;1.60;1.00
18690;DHT22;9782;52.930;15.562;2023-03-03T09:04:10;1.70;1.00
18690;DHT22;9782;52.930;15.562;2023-03-03T09:06:37;1.70;1.00
18690;DHT22;9782;52.930;15.562;2023-03-03T09:09:06;1.80;1.00
18690;DHT22;9782;52.930;15.562;2023-03-03T09:11:33;1.90;1.00
18690;DHT22;9782;52.930;15.562;2023-03-03T09:14:06;2.00;1.00
18690;DHT22;9782;52.930;15.562;2023-03-03T09:16:37;2.10;99.90
18690;DHT22;9782;52.930;15.562;2023-03-03T09:19:22;2.00;99.90
18690;DHT22;9782;52.930;15.562;2023-03-03T09:21:50;2.00;99.90
18690;DHT22;9782;52.930;15.562;2023-03-03T09:24:24;2.10;1.00
18690;DHT22;9782;52.930;15.562;2023-03-03T09:26:51;2.20;99.90
18690;DHT22;9782;52.930;15.562;2023-03-03T09:29:25;2.30;99.90
18690;DHT22;9782;52.930;15.562;2023-03-03T09:31:53;2.30;1.00
18690;DHT22;9782;52.930;15.562;2023-03-03T09:34:23;2.30;1.00
18690;DHT22;9782;52.930;15.562;2023-03-03T09:36:53;2.30;4.30
18690;DHT22;9782;52.930;15.562;2023-03-03T09:39:23;2.30;1.00
18690;DHT22;9782;52.930;15.562;2023-03-03T09:42:08;2.30;1.00
18690;DHT22;9782;52.930;15.562;2023-03-03T09:45:06;2.30;1.00
18690;DHT22;9782;52.930;15.562;2023-03-03T09:50:43;2.30;1.00
18690;DHT22;9782;52.930;15.562;2023-03-03T09:53:20;2.30;1.00
18690;DHT22;9782;52.930;15.562;2023-03-03T09:55:58;2.40;1.00
18690;DHT22;9782;52.930;15.562;2023-03-03T09:58:35;2.60;55.20
18690;DHT22;9782;52.930;15.562;2023-03-03T10:01:28;2.80;1.00
18690;DHT22;9782;52.930;15.562;2023-03-03T10:07:10;3.00;99.90
18690;DHT22;9782;52.930;15.562;2023-03-03T10:09:53;3.00;99.90
18690;DHT22;9782;52.930;15.562;2023-03-03T10:12:27;2.90;1.00
18690;DHT22;9782;52.930;15.562;2023-03-03T10:15:08;2.80;99.90
18690;DHT22;9782;52.930;15.562;2023-03-03T10:17:47;3.00;1.00
18690;DHT22;9782;52.930;15.562;2023-03-03T10:20:25;3.10;99.90
18690;DHT22;9782;52.930;15.562;2023-03-03T10:23:02;3.00;1.00
18690;DHT22;9782;52.930;15.562;2023-03-03T10:25:38;3.00;95.50
18690;DHT22;9782;52.930;15.562;2023-03-03T10:31:14;3.10;99.90
18690;DHT22;9782;52.930;15.562;2023-03-03T10:33:48;3.10;1.00
18690;DHT22;9782;52.930;15.562;2023-03-03T10:36:33;3.00;1.00
18690;DHT22;9782;52.930;15.562;2023-03-03T10:39:18;3.10;99.90
18690;DHT22;9782;52.930;15.562;2023-03-03T10:41:58;3.20;99.90
18690;DHT22;9782;52.930;15.562;2023-03-03T10:44:52;3.30;99.90
18690;DHT22;9782;52.930;15.562;2023-03-03T10:47:39;3.40;99.90
18690;DHT22;9782;52.930;15.562;2023-03-03T10:50:16;3.50;1.00
18690;DHT22;9782;52.930;15.562;2023-03-03T10:52:50;3.50;1.00
18690;DHT22;9782;52.930;15.562;2023-03-03T10:55:41;3.50;1.00
18690;DHT22;9782;52.930;15.562;2023-03-03T10:58:44;3.40;1.00
18690;DHT22;9782;52.930;15.562;2023-03-03T11:01:20;3.50;99.90
18690;DHT22;9782;52.930;15.562;2023-03-03T11:04:13;3.70;11.90
18690;DHT22;9782;52.930;15.562;2023-03-03T11:06:46;3.90;1.00
18690;DHT22;9782;52.930;15.562;2023-03-03T11:09:33;4.00;1.00
18690;DHT22;9782;52.930;15.562;2023-03-03T11:12:13;4.10;1.00
18690;DHT22;9782;52.930;15.562;2023-03-03T11:14:46;4.10;1.00
18690;DHT22;9782;52.930;15.562;2023-03-03T11:17:19;4.00;99.90
18690;DHT22;9782;52.930;15.562;2023-03-03T11:20:00;3.80;99.90
18690;DHT22;9782;52.930;15.562;2023-03-03T11:22:34;3.80;1.00
18690;DHT22;9782;52.930;15.562;2023-03-03T11:25:20;3.90;1.00
18690;DHT22;9782;52.930;15.562;2023-03-03T11:28:18;4.20;1.00
18690;DHT22;9782;52.930;15.562;2023-03-03T11:31:03;4.20;99.90
18690;DHT22;9782;52.930;15.562;2023-03-03T11:33:37;4.10;99.90
18690;DHT22;9782;52.930;15.562;2023-03-03T11:36:13;4.10;1.00
18690;DHT22;9782;52.930;15.562;2023-03-03T11:38:56;4.20;1.00
18690;DHT22;9782;52.930;15.562;2023-03-03T11:41:30;4.40;1.00
18690;DHT22;9782;52.930;15.562;2023-03-03T11:44:04;4.50;1.00
18690;DHT22;9782;52.930;15.562;2023-03-03T11:46:39;4.50;99.90
18690;DHT22;9782;52.930;15.562;2023-03-03T11:49:13;4.60;1.00
18690;DHT22;9782;52.930;15.562;2023-03-03T11:51:49;4.60;99.90
18690;DHT22;9782;52.930;15.562;2023-03-03T11:54:22;4.60;99.90
18690;DHT22;9782;52.930;15.562;2023-03-03T11:56:51;4.50;99.90
18690;DHT22;9782;52.930;15.562;2023-03-03T11:59:43;4.60;99.90
18690;DHT22;9782;52.930;15.562;2023-03-03T12:02:39;4.60;99.90
18690;DHT22;9782;52.930;15.562;2023-03-03T12:05:14;4.50;57.70
18690;DHT22;9782;52.930;15.562;2023-03-03T12:07:49;4.40;99.90
18690;DHT22;9782;52.930;15.562;2023-03-03T12:10:25;4.40;99.90
18690;DHT22;9782;52.930;15.562;2023-03-03T12:13:00;4.40;99.90
18690;DHT22;9782;52.930;15.562;2023-03-03T12:15:35;4.50;99.90
18690;DHT22;9782;52.930;15.562;2023-03-03T12:18:34;4.60;99.90
18690;DHT22;9782;52.930;15.562;2023-03-03T12:21:16;4.70;1.00
18690;DHT22;9782;52.930;15.562;2023-03-03T12:24:06;4.90;99.90
18690;DHT22;9782;52.930;15.562;2023-03-03T12:26:44;4.80;18.00
18690;DHT22;9782;52.930;15.562;2023-03-03T12:29:24;4.90;99.90
18690;DHT22;9782;52.930;15.562;2023-03-03T12:32:00;4.90;54.70
18690;DHT22;9782;52.930;15.562;2023-03-03T12:34:36;4.90;1.00
18690;DHT22;9782;52.930;15.562;2023-03-03T12:37:22;4.80;1.00
18690;DHT22;9782;52.930;15.562;2023-03-03T12:40:02;4.60;1.00
18690;DHT22;9782;52.930;15.562;2023-03-03T12:42:40;4.60;83.80
18690;DHT22;9782;52.930;15.562;2023-03-03T12:45:22;4.60;99.90
18690;DHT22;9782;52.930;15.562;2023-03-03T12:47:52;4.60;1.00
18690;DHT22;9782;52.930;15.562;2023-03-03T12:50:29;4.60;1.00
18690;DHT22;9782;52.930;15.562;2023-03-03T12:53:06;4.60;1.00
18690;DHT22;9782;52.930;15.562;2023-03-03T12:55:46;4.70;1.00
18690;DHT22;9782;52.930;15.562;2023-03-03T12:58:23;4.60;1.00
18690;DHT22;9782;52.930;15.562;2023-03-03T13:00:58;4.60;1.00
18690;DHT22;9782;52.930;15.562;2023-03-03T13:03:37;4.60;1.00
18690;DHT22;9782;52.930;15.562;2023-03-03T13:06:10;4.60;1.00
18690;DHT22;9782;52.930;15.562;2023-03-03T13:08:52;4.60;1.00
18690;DHT22;9782;52.930;15.562;2023-03-03T13:11:34;4.60;1.00
18690;DHT22;9782;52.930;15.562;2023-03-03T13:14:12;4.60;1.00
18690;DHT22;9782;52.930;15.562;2023-03-03T13:16:44;4.50;1.00
18690;DHT22;9782;52.930;15.562;2023-03-03T13:19:16;4.40;1.00
18690;DHT22;9782;52.930;15.562;2023-03-03T13:21:49;4.40;97.80
18690;DHT22;9782;52.930;15.562;2023-03-03T13:24:20;4.50;99.90
18690;DHT22;9782;52.930;15.562;2023-03-03T13:26:54;4.50;1.00
18690;DHT22;9782;52.930;15.562;2023-03-03T13:29:25;4.40;1.00
18690;DHT22;9782;52.930;15.562;2023-03-03T13:31:55;4.50;1.00
18690;DHT22;9782;52.930;15.562;2023-03-03T13:34:36;4.40;1.00
18690;DHT22;9782;52.930;15.562;2023-03-03T13:37:07;4.40;99.90
18690;DHT22;9782;52.930;15.562;2023-03-03T13:39:39;4.50;99.90
18690;DHT22;9782;52.930;15.562;2023-03-03T13:42:16;4.50;96.00
18690;DHT22;9782;52.930;15.562;2023-03-03T13:44:46;4.50;99.90
18690;DHT22;9782;52.930;15.562;2023-03-03T13:47:20;4.50;1.00
18690;DHT22;9782;52.930;15.562;2023-03-03T13:49:59;4.40;99.90
18690;DHT22;9782;52.930;15.562;2023-03-03T13:52:31;4.30;99.90
18690;DHT22;9782;52.930;15.562;2023-03-03T13:55:13;4.30;99.90
18690;DHT22;9782;52.930;15.562;2023-03-03T13:58:05;4.20;99.90
18690;DHT22;9782;52.930;15.562;2023-03-03T14:00:55;4.20;99.90
18690;DHT22;9782;52.930;15.562;2023-03-03T14:06:27;4.30;99.90
18690;DHT22;9782;52.930;15.562;2023-03-03T14:09:11;4.30;99.90
18690;DHT22;9782;52.930;15.562;2023-03-03T14:11:45;4.20;99.90
18690;DHT22;9782;52.930;15.562;2023-03-03T14:14:36;4.20;99.90
18690;DHT22;9782;52.930;15.562;2023-03-03T14:17:12;4.20;99.90
18690;DHT22;9782;52.930;15.562;2023-03-03T14:19:43;4.20;99.90
18690;DHT22;9782;52.930;15.562;2023-03-03T14:22:17;4.20;99.90
18690;DHT22;9782;52.930;15.562;2023-03-03T14:25:00;4.20;99.90
18690;DHT22;9782;52.930;15.562;2023-03-03T14:27:34;4.20;99.90
18690;DHT22;9782;52.930;15.562;2023-03-03T14:30:25;4.20;99.90
18690;DHT22;9782;52.930;15.562;2023-03-03T14:33:04;4.20;99.90
18690;DHT22;9782;52.930;15.562;2023-03-03T14:35:41;4.20;99.90
18690;DHT22;9782;52.930;15.562;2023-03-03T14:38:12;4.20;99.90
18690;DHT22;9782;52.930;15.562;2023-03-03T14:40:42;4.30;1.00
18690;DHT22;9782;52.930;15.562;2023-03-03T14:43:21;4.30;99.90
18690;DHT22;9782;52.930;15.562;2023-03-03T14:45:51;4.30;99.90
18690;DHT22;9782;52.930;15.562;2023-03-03T14:48:21;4.20;99.90
18690;DHT22;9782;52.930;15.562;2023-03-03T14:50:49;4.20;99.90
18690;DHT22;9782;52.930;15.562;2023-03-03T14:53:30;4.20;99.90
18690;DHT22;9782;52.930;15.562;2023-03-03T14:56:15;4.20;1.00
18690;DHT22;9782;52.930;15.562;2023-03-03T14:58:43;4.20;1.00
18690;DHT22;9782;52.930;15.562;2023-03-03T15:01:24;4.20;1.00
18690;DHT22;9782;52.930;15.562;2023-03-03T15:04:00;4.20;1.00
18690;DHT22;9782;52.930;15.562;2023-03-03T15:06:32;4.20;1.00
18690;DHT22;9782;52.930;15.562;2023-03-03T15:09:19;4.20;1.00
18690;DHT22;9782;52.930;15.562;2023-03-03T15:11:50;4.10;1.00
18690;DHT22;9782;52.930;15.562;2023-03-03T15:14:20;4.10;1.00
18690;DHT22;9782;52.930;15.562;2023-03-03T15:16:50;4.20;1.00
18690;DHT22;9782;52.930;15.562;2023-03-03T15:19:43;4.20;1.00
18690;DHT22;9782;52.930;15.562;2023-03-03T15:22:21;4.20;1.00
18690;DHT22;9782;52.930;15.562;2023-03-03T15:24:57;4.20;1.00
18690;DHT22;9782;52.930;15.562;2023-03-03T15:27:30;4.20;1.00
18690;DHT22;9782;52.930;15.562;2023-03-03T15:30:06;4.20;1.00
18690;DHT22;9782;52.930;15.562;2023-03-03T15:32:43;4.20;1.00
18690;DHT22;9782;52.930;15.562;2023-03-03T15:35:25;4.10;1.00
18690;DHT22;9782;52.930;15.562;2023-03-03T15:37:57;4.10;1.00
18690;DHT22;9782;52.930;15.562;2023-03-03T15:40:27;4.10;1.00
18690;DHT22;9782;52.930;15.562;2023-03-03T15:43:03;4.10;1.00
18690;DHT22;9782;52.930;15.562;2023-03-03T15:45:39;4.10;1.00
18690;DHT22;9782;52.930;15.562;2023-03-03T15:48:23;4.10;1.00
18690;DHT22;9782;52.930;15.562;2023-03-03T15:50:58;4.00;1.00
18690;DHT22;9782;52.930;15.562;2023-03-03T15:53:47;4.10;1.00
18690;DHT22;9782;52.930;15.562;2023-03-03T15:56:25;4.00;1.00
18690;DHT22;9782;52.930;15.562;2023-03-03T15:59:17;4.00;1.00
18690;DHT22;9782;52.930;15.562;2023-03-03T16:01:51;3.90;1.00
18690;DHT22;9782;52.930;15.562;2023-03-03T16:04:24;3.90;1.00
18690;DHT22;9782;52.930;15.562;2023-03-03T16:06:59;3.90;1.00
18690;DHT22;9782;52.930;15.562;2023-03-03T16:09:39;3.90;1.00
18690;DHT22;9782;52.930;15.562;2023-03-03T16:12:16;3.90;1.00
18690;DHT22;9782;52.930;15.562;2023-03-03T16:15:08;3.80;1.00
18690;DHT22;9782;52.930;15.562;2023-03-03T16:17:48;3.80;1.00
18690;DHT22;9782;52.930;15.562;2023-03-03T16:20:21;3.80;1.00
18690;DHT22;9782;52.930;15.562;2023-03-03T16:22:59;3.70;1.00
18690;DHT22;9782;52.930;15.562;2023-03-03T16:25:35;3.70;1.00
18690;DHT22;9782;52.930;15.562;2023-03-03T16:28:10;3.70;1.00
18690;DHT22;9782;52.930;15.562;2023-03-03T16:30:48;3.70;1.00
18690;DHT22;9782;52.930;15.562;2023-03-03T16:33:21;3.60;1.00
18690;DHT22;9782;52.930;15.562;2023-03-03T16:35:58;3.60;1.00
18690;DHT22;9782;52.930;15.562;2023-03-03T16:38:30;3.60;1.00
18690;DHT22;9782;52.930;15.562;2023-03-03T16:41:00;3.60;1.00
18690;DHT22;9782;52.930;15.562;2023-03-03T16:43:32;3.50;8.50
18690;DHT22;9782;52.930;15.562;2023-03-03T16:46:10;3.50;55.90